Time;durP1;ratioP1;P1;durP2;ratioP2;P2;SDS_P1;SDS_P2;PMS_P1;PMS_P2;Temp;Humidity;BMP_temperature;BMP_pressure;BME280_temperature;BME280_humidity;BME280_pressure;Samples;Min_cycle;Max_cycle;Signal;HPM_P1;HPM_P2
2023/12/20 00:00:08;;;;;;;6.73;3.73;;;5.90;99.90;;;;;;5096211;28;20072;-82
2023/12/20 00:02:34;;;;;;;8.37;3.87;;;5.90;99.90;;;;;;5113868;28;20015;-81
2023/12/20 00:05:00;;;;;;;6.20;3.70;;;5.90;99.90;;;;;;5096527;28;20019;-81
2023/12/20 00:07:26;;;;;;;5.60;3.50;;;5.90;99.90;;;;;;5095725;28;20024;-81
2023/12/20 00:09:51;;;;;;;6.30;3.63;;;5.90;99.90;;;;;;5096116;28;20027;-81
2023/12/20 00:12:17;;;;;;;7.90;3.73;;;5.90;99.90;;;;;;5095672;28;20119;-82
2023/12/20 00:14:42;;;;;;;7.83;3.73;;;5.90;99.90;;;;;;5096503;28;20020;-81
2023/12/20 00:17:08;;;;;;;10.50;3.83;;;5.80;99.90;;;;;;5096372;28;20061;-81
2023/12/20 00:19:33;;;;;;;7.10;3.87;;;5.90;99.90;;;;;;5113841;28;20040;-82
2023/12/20 00:21:59;;;;;;;7.33;3.90;;;5.90;99.90;;;;;;5096111;28;20026;-82
2023/12/20 00:24:25;;;;;;;6.10;3.57;;;5.80;99.90;;;;;;5095909;28;20023;-82
2023/12/20 00:26:51;;;;;;;8.17;4.43;;;5.80;99.90;;;;;;5096503;28;20020;-82
2023/12/20 00:29:16;;;;;;;6.60;3.87;;;5.80;99.90;;;;;;5095724;28;20101;-82
2023/12/20 00:31:42;;;;;;;6.83;4.10;;;5.80;99.90;;;;;;5096151;28;20019;-82
2023/12/20 00:34:07;;;;;;;8.23;3.70;;;5.80;99.90;;;;;;5114142;28;20024;-82
2023/12/20 00:36:33;;;;;;;6.97;3.97;;;5.80;99.90;;;;;;5095688;28;20024;-82
2023/12/20 00:38:58;;;;;;;5.10;3.23;;;5.80;99.90;;;;;;5114269;28;20023;-82
2023/12/20 00:41:24;;;;;;;6.57;3.53;;;5.80;99.90;;;;;;5095335;28;20151;-82
2023/12/20 00:43:50;;;;;;;7.03;3.67;;;5.80;99.90;;;;;;5099190;28;20123;-82
2023/12/20 00:46:15;;;;;;;6.33;3.63;;;5.80;99.90;;;;;;5100024;28;20019;-82
2023/12/20 00:48:42;;;;;;;6.67;3.40;;;5.70;99.90;;;;;;5100218;28;20027;-82
2023/12/20 00:51:08;;;;;;;5.13;3.07;;;5.80;99.90;;;;;;5100085;28;20042;-81
2023/12/20 00:53:33;;;;;;;6.03;3.20;;;5.80;99.90;;;;;;5099255;28;20072;-81
2023/12/20 00:55:59;;;;;;;5.07;3.57;;;5.80;99.90;;;;;;5117956;28;20028;-81
2023/12/20 00:58:24;;;;;;;5.90;3.13;;;5.80;99.90;;;;;;5117482;28;20032;-82
2023/12/20 01:00:51;;;;;;;6.10;3.27;;;5.80;99.90;;;;;;5099570;28;20031;-82
2023/12/20 01:03:16;;;;;;;5.60;3.50;;;5.80;99.90;;;;;;5099642;28;20333;-81
2023/12/20 01:05:42;;;;;;;7.77;3.30;;;5.80;99.90;;;;;;5099992;28;20022;-82
2023/12/20 01:08:08;;;;;;;5.97;3.60;;;5.80;99.90;;;;;;5099465;28;20381;-82
2023/12/20 01:10:33;;;;;;;5.83;3.40;;;5.80;99.90;;;;;;5099273;28;20028;-82
2023/12/20 01:12:59;;;;;;;10.20;4.07;;;5.80;99.90;;;;;;5099430;28;20030;-82
2023/12/20 01:15:24;;;;;;;5.63;3.10;;;5.80;99.90;;;;;;5099051;28;20516;-82
2023/12/20 01:17:50;;;;;;;5.47;3.33;;;5.80;99.90;;;;;;5099107;28;20027;-81
2023/12/20 01:20:15;;;;;;;5.97;3.13;;;5.80;99.90;;;;;;5117633;28;20022;-81
2023/12/20 01:22:42;;;;;;;4.77;2.97;;;5.80;99.90;;;;;;5098906;28;20016;-81
2023/12/20 01:25:08;;;;;;;5.30;3.37;;;5.80;99.90;;;;;;5117175;28;20403;-81
2023/12/20 01:27:34;;;;;;;6.23;3.40;;;5.80;99.90;;;;;;5098904;28;20062;-82
2023/12/20 01:29:59;;;;;;;6.30;3.23;;;5.80;99.90;;;;;;5099260;28;20034;-82
2023/12/20 01:32:25;;;;;;;6.40;3.33;;;5.80;99.90;;;;;;5098708;28;20016;-82
2023/12/20 01:34:51;;;;;;;5.70;3.20;;;5.80;99.90;;;;;;5117207;28;20020;-81
2023/12/20 01:37:16;;;;;;;6.60;3.53;;;5.80;99.90;;;;;;5098999;28;20023;-81
2023/12/20 01:39:42;;;;;;;5.10;3.40;;;5.80;99.90;;;;;;5098248;28;20153;-82
2023/12/20 01:42:07;;;;;;;6.83;3.20;;;5.80;99.90;;;;;;5117090;28;20048;-81
2023/12/20 01:44:33;;;;;;;5.63;3.30;;;5.80;99.90;;;;;;5098446;28;20053;-82
2023/12/20 01:46:59;;;;;;;6.00;3.10;;;5.80;99.90;;;;;;5098736;28;20027;-81
2023/12/20 01:49:25;;;;;;;6.17;3.37;;;5.80;99.90;;;;;;5116672;28;20068;-82
2023/12/20 01:51:51;;;;;;;5.40;3.27;;;5.80;99.90;;;;;;5098963;28;20023;-82
2023/12/20 01:54:18;;;;;;;6.60;3.70;;;5.80;99.90;;;;;;5097922;28;20028;-82
2023/12/20 01:56:43;;;;;;;6.23;3.60;;;5.80;99.90;;;;;;5098452;28;20020;-82
2023/12/20 01:59:09;;;;;;;6.50;3.37;;;5.80;99.90;;;;;;5098571;28;20024;-82
2023/12/20 02:01:35;;;;;;;4.87;3.03;;;5.80;99.90;;;;;;5098120;28;20414;-82
2023/12/20 02:04:01;;;;;;;6.60;2.90;;;5.90;99.90;;;;;;5098267;28;20043;-81
2023/12/20 02:06:33;;;;;;;4.57;3.60;;;5.90;99.90;;;;;;5097978;28;20028;-81
2023/12/20 02:08:59;;;;;;;6.13;3.40;;;5.90;99.90;;;;;;5098242;28;20031;-82
2023/12/20 02:11:26;;;;;;;7.57;3.47;;;5.90;99.90;;;;;;5098207;28;20083;-82
2023/12/20 02:13:51;;;;;;;4.83;2.83;;;5.90;99.90;;;;;;5116527;28;20027;-82
2023/12/20 02:16:17;;;;;;;6.17;3.47;;;5.90;99.90;;;;;;5098342;28;20416;-82
2023/12/20 02:18:46;;;;;;;5.37;3.03;;;5.90;99.90;;;;;;5098093;28;20019;-82
2023/12/20 02:21:12;;;;;;;5.77;3.37;;;5.90;99.90;;;;;;5098240;28;20076;-82
2023/12/20 02:23:38;;;;;;;5.37;3.10;;;5.90;99.90;;;;;;5097725;28;20417;-82
2023/12/20 02:26:04;;;;;;;5.67;3.03;;;5.90;99.90;;;;;;5098134;28;20026;-82
2023/12/20 02:28:31;;;;;;;5.67;3.20;;;5.90;99.90;;;;;;5097473;28;20062;-82
2023/12/20 02:30:57;;;;;;;6.03;2.80;;;5.90;99.90;;;;;;5098119;28;20180;-82
2023/12/20 02:33:23;;;;;;;5.50;3.10;;;5.90;99.90;;;;;;5097507;28;20499;-84
2023/12/20 02:35:48;;;;;;;4.20;2.90;;;5.90;99.90;;;;;;5098145;28;20027;-81
2023/12/20 02:38:14;;;;;;;5.07;3.00;;;5.90;99.90;;;;;;5098167;28;20055;-82
2023/12/20 02:40:39;;;;;;;6.40;3.10;;;5.90;99.90;;;;;;5097006;28;20047;-82
2023/12/20 02:43:05;;;;;;;5.27;2.97;;;5.90;99.90;;;;;;5097791;28;20063;-81
2023/12/20 02:45:30;;;;;;;4.93;3.00;;;6.00;99.90;;;;;;5097176;28;20011;-82
2023/12/20 02:47:56;;;;;;;4.70;2.93;;;5.90;99.90;;;;;;5115669;28;20460;-82
2023/12/20 02:50:22;;;;;;;5.57;2.93;;;6.00;99.90;;;;;;5097493;28;20077;-81
2023/12/20 02:52:47;;;;;;;5.50;2.60;;;6.00;99.90;;;;;;5096877;28;20055;-81
2023/12/20 02:55:13;;;;;;;5.27;2.93;;;6.00;99.90;;;;;;5115423;28;20020;-81
2023/12/20 02:57:41;;;;;;;5.17;2.73;;;6.00;99.90;;;;;;5097295;28;20051;-82
2023/12/20 03:00:09;;;;;;;4.13;2.70;;;6.00;99.90;;;;;;5115438;28;20023;-82
2023/12/20 03:02:35;;;;;;;5.80;3.23;;;6.00;99.90;;;;;;5096995;28;20054;-82
2023/12/20 03:05:01;;;;;;;4.07;2.53;;;6.00;99.90;;;;;;5097210;28;20026;-82
2023/12/20 03:07:26;;;;;;;5.67;2.67;;;6.00;99.90;;;;;;5114569;28;20098;-82
2023/12/20 03:09:52;;;;;;;6.47;2.67;;;6.00;99.90;;;;;;5097054;28;20051;-82
2023/12/20 03:12:17;;;;;;;3.67;2.50;;;6.00;99.90;;;;;;5096703;28;20027;-82
2023/12/20 03:14:44;;;;;;;4.23;2.43;;;6.00;99.90;;;;;;5096521;28;20107;-82
2023/12/20 03:17:10;;;;;;;4.27;2.27;;;6.00;99.90;;;;;;5096565;28;20020;-82
2023/12/20 03:19:35;;;;;;;4.80;2.10;;;6.00;99.90;;;;;;5096689;28;20080;-82
2023/12/20 03:22:01;;;;;;;3.43;2.23;;;6.00;99.90;;;;;;5097313;28;20022;-82
2023/12/20 03:24:27;;;;;;;3.93;2.40;;;6.00;99.90;;;;;;5096773;28;20403;-82
2023/12/20 03:26:52;;;;;;;4.00;2.40;;;6.00;99.90;;;;;;5114765;28;20024;-82
2023/12/20 03:29:18;;;;;;;4.23;2.20;;;6.00;99.90;;;;;;5096796;28;20030;-81
2023/12/20 03:31:44;;;;;;;4.67;2.43;;;6.00;99.90;;;;;;5096310;28;20020;-82
2023/12/20 03:34:10;;;;;;;3.93;2.27;;;6.00;99.90;;;;;;5114840;28;20027;-82
2023/12/20 03:36:36;;;;;;;3.63;2.33;;;6.00;99.90;;;;;;5114178;28;20019;-82
2023/12/20 03:39:01;;;;;;;4.73;2.33;;;6.00;99.90;;;;;;5096811;28;20034;-82
2023/12/20 03:41:27;;;;;;;3.97;2.60;;;6.00;99.90;;;;;;5095608;28;20485;-84
2023/12/20 03:43:52;;;;;;;3.57;2.43;;;6.00;99.90;;;;;;5096663;28;20028;-81
2023/12/20 03:46:18;;;;;;;4.60;2.60;;;6.00;99.90;;;;;;5096880;28;20029;-83
2023/12/20 03:48:43;;;;;;;3.47;2.63;;;6.00;99.90;;;;;;5096073;28;20027;-81
2023/12/20 03:51:09;;;;;;;4.43;2.60;;;6.00;99.90;;;;;;5096748;28;20019;-81
2023/12/20 03:53:34;;;;;;;5.57;2.80;;;6.00;99.90;;;;;;5095997;28;20367;-82
2023/12/20 03:56:00;;;;;;;3.37;2.27;;;6.00;99.90;;;;;;5096495;28;20020;-82
2023/12/20 03:58:26;;;;;;;3.97;2.57;;;6.00;99.90;;;;;;5096664;28;20372;-81
2023/12/20 04:00:51;;;;;;;3.60;2.27;;;6.00;99.90;;;;;;5095843;28;20023;-80
2023/12/20 04:03:17;;;;;;;4.37;1.97;;;6.00;99.90;;;;;;5096370;28;20501;-81
2023/12/20 04:05:42;;;;;;;3.77;2.30;;;6.00;99.90;;;;;;5114235;28;20031;-82
2023/12/20 04:08:09;;;;;;;3.10;1.93;;;6.00;99.90;;;;;;5114236;28;20024;-82
2023/12/20 04:10:34;;;;;;;4.17;2.10;;;6.00;99.90;;;;;;5095581;28;20031;-82
2023/12/20 04:13:00;;;;;;;3.57;2.20;;;6.00;99.90;;;;;;5096492;28;20026;-82
2023/12/20 04:15:25;;;;;;;3.70;2.10;;;6.00;99.90;;;;;;5096277;28;20016;-82
2023/12/20 04:17:51;;;;;;;3.40;1.87;;;6.00;99.90;;;;;;5097138;28;20027;-80
2023/12/20 04:20:17;;;;;;;2.43;1.80;;;6.00;99.90;;;;;;5118550;28;20094;-82
2023/12/20 04:22:42;;;;;;;2.60;1.90;;;6.00;99.90;;;;;;5118140;28;20033;-82
2023/12/20 04:25:08;;;;;;;2.60;1.70;;;6.10;99.90;;;;;;5100654;28;20015;-82
2023/12/20 04:27:34;;;;;;;3.20;1.73;;;6.10;99.90;;;;;;5099928;28;20526;-82
2023/12/20 04:29:59;;;;;;;3.03;1.80;;;6.10;99.90;;;;;;5100322;28;20032;-81
2023/12/20 04:32:25;;;;;;;2.90;1.90;;;6.10;99.90;;;;;;5100459;28;20057;-81
2023/12/20 04:34:50;;;;;;;2.73;1.83;;;6.10;99.90;;;;;;5099612;28;20129;-82
2023/12/20 04:37:16;;;;;;;3.30;1.63;;;6.10;99.90;;;;;;5100398;28;20360;-81
2023/12/20 04:39:42;;;;;;;3.33;1.70;;;6.10;99.90;;;;;;5099431;28;20035;-82
2023/12/20 04:42:08;;;;;;;3.93;2.13;;;6.10;99.90;;;;;;5118337;28;20043;-81
2023/12/20 04:44:33;;;;;;;2.13;1.57;;;6.10;99.90;;;;;;5099605;28;20020;-82
2023/12/20 04:46:59;;;;;;;2.70;1.80;;;6.10;99.90;;;;;;5100324;28;20020;-81
2023/12/20 04:49:25;;;;;;;3.43;1.80;;;6.10;99.90;;;;;;5118041;28;20453;-81
2023/12/20 04:51:51;;;;;;;3.90;2.10;;;6.10;99.90;;;;;;5117807;28;20035;-82
2023/12/20 04:54:16;;;;;;;2.50;1.80;;;6.20;99.90;;;;;;5099884;28;20024;-82
2023/12/20 04:56:42;;;;;;;2.63;2.10;;;6.10;99.90;;;;;;5117521;28;20031;-81
2023/12/20 04:59:07;;;;;;;3.80;2.20;;;6.20;99.90;;;;;;5117892;28;20023;-81
2023/12/20 05:01:33;;;;;;;3.20;1.70;;;6.10;99.90;;;;;;5099420;28;20016;-82
2023/12/20 05:03:59;;;;;;;4.53;2.07;;;6.20;99.90;;;;;;5099737;28;20016;-81
2023/12/20 05:06:24;;;;;;;3.93;2.10;;;6.10;99.90;;;;;;5099966;28;20023;-81
2023/12/20 05:08:50;;;;;;;2.80;2.00;;;6.20;99.90;;;;;;5098980;28;20358;-81
2023/12/20 05:11:15;;;;;;;3.20;1.93;;;6.20;99.90;;;;;;5099533;28;20054;-81
2023/12/20 05:13:42;;;;;;;4.33;2.00;;;6.20;99.90;;;;;;5099252;28;20114;-81
2023/12/20 05:16:08;;;;;;;3.80;2.10;;;6.20;99.90;;;;;;5117678;28;20019;-81
2023/12/20 05:18:34;;;;;;;3.87;2.10;;;6.20;99.90;;;;;;5099025;28;20471;-82
2023/12/20 05:21:00;;;;;;;3.90;2.20;;;6.20;99.90;;;;;;5099306;28;20023;-82
2023/12/20 05:23:25;;;;;;;2.93;1.93;;;6.20;99.90;;;;;;5099183;28;20076;-81
2023/12/20 05:25:51;;;;;;;4.40;2.00;;;6.20;99.90;;;;;;5116947;28;20053;-82
2023/12/20 05:28:17;;;;;;;3.53;2.33;;;6.20;99.90;;;;;;5099121;28;20027;-82
2023/12/20 05:30:43;;;;;;;3.63;2.17;;;6.20;99.90;;;;;;5097416;28;20415;-81
2023/12/20 05:33:09;;;;;;;2.80;1.80;;;6.20;99.90;;;;;;5099384;28;20114;-81
2023/12/20 05:35:34;;;;;;;3.17;2.03;;;6.20;99.90;;;;;;5098799;28;20055;-81
2023/12/20 05:38:00;;;;;;;3.23;2.40;;;6.20;99.90;;;;;;5099306;28;20499;-81
2023/12/20 05:40:25;;;;;;;4.73;2.00;;;6.20;99.90;;;;;;5098906;28;20079;-82
2023/12/20 05:42:51;;;;;;;4.07;2.37;;;6.20;99.90;;;;;;5098268;28;20456;-81
2023/12/20 05:45:17;;;;;;;3.17;2.00;;;6.30;99.90;;;;;;5098953;28;20016;-81
2023/12/20 05:47:42;;;;;;;3.40;2.13;;;6.30;99.90;;;;;;5098516;28;20180;-82
2023/12/20 05:50:08;;;;;;;4.63;2.30;;;6.30;99.90;;;;;;5098920;28;20023;-81
2023/12/20 05:52:34;;;;;;;3.60;2.07;;;6.30;99.90;;;;;;5098164;28;20069;-84
2023/12/20 05:55:01;;;;;;;3.10;2.00;;;6.30;99.90;;;;;;5116941;28;20023;-82
2023/12/20 05:57:27;;;;;;;5.13;2.03;;;6.30;99.90;;;;;;5098823;28;20031;-81
2023/12/20 05:59:52;;;;;;;4.83;2.70;;;6.30;99.90;;;;;;5098427;28;20024;-82
2023/12/20 06:02:18;;;;;;;3.20;2.27;;;6.30;99.90;;;;;;5098904;28;20356;-80
2023/12/20 06:04:44;;;;;;;3.50;2.23;;;6.30;99.90;;;;;;5098454;28;20020;-82
2023/12/20 06:07:12;;;;;;;4.80;2.03;;;6.30;99.90;;;;;;5098812;28;20039;-81
2023/12/20 06:09:38;;;;;;;2.73;1.87;;;6.30;99.90;;;;;;5097938;28;20038;-82
2023/12/20 06:12:04;;;;;;;2.90;2.10;;;6.30;99.90;;;;;;5098461;28;20028;-82
2023/12/20 06:14:30;;;;;;;3.17;1.80;;;6.30;99.90;;;;;;5098379;28;20026;-82
2023/12/20 06:16:56;;;;;;;3.43;2.10;;;6.30;99.90;;;;;;5115762;28;20023;-80
2023/12/20 06:19:22;;;;;;;3.80;2.27;;;6.30;99.90;;;;;;5098461;28;20097;-82
2023/12/20 06:21:48;;;;;;;4.30;2.03;;;6.30;99.90;;;;;;5097615;28;20032;-82
2023/12/20 06:24:13;;;;;;;3.63;1.97;;;6.40;99.90;;;;;;5116173;28;20023;-82
2023/12/20 06:26:39;;;;;;;5.30;2.20;;;6.30;99.90;;;;;;5097677;28;20020;-82
2023/12/20 06:29:04;;;;;;;2.90;2.00;;;6.40;99.90;;;;;;5098172;28;20081;-82
2023/12/20 06:31:32;;;;;;;3.57;2.23;;;6.30;99.90;;;;;;5097930;28;20030;-81
2023/12/20 06:33:59;;;;;;;2.77;1.83;;;6.40;99.90;;;;;;5097532;28;20019;-82
2023/12/20 06:36:25;;;;;;;2.93;2.10;;;6.40;99.90;;;;;;5098094;28;20069;-82
2023/12/20 06:38:51;;;;;;;3.37;2.03;;;6.30;99.90;;;;;;5097338;28;20027;-82
2023/12/20 06:41:17;;;;;;;2.63;1.93;;;6.40;99.90;;;;;;5096803;28;20036;-80
2023/12/20 06:43:43;;;;;;;4.80;2.63;;;6.30;99.90;;;;;;5115439;28;20024;-82
2023/12/20 06:46:08;;;;;;;2.87;2.03;;;6.30;99.90;;;;;;5115967;28;20107;-82
2023/12/20 06:48:34;;;;;;;3.20;1.90;;;6.30;99.90;;;;;;5115739;28;20066;-81
2023/12/20 06:51:04;;;;;;;3.77;2.40;;;6.30;99.90;;;;;;5097469;28;20024;-82
2023/12/20 06:53:29;;;;;;;4.78;2.25;;;6.20;99.90;;;;;;5097641;28;20046;-81
2023/12/20 06:55:56;;;;;;;2.77;1.73;;;6.20;99.90;;;;;;5097302;28;20448;-82
2023/12/20 06:58:22;;;;;;;3.73;2.20;;;6.10;99.90;;;;;;5097560;28;20054;-81
2023/12/20 07:00:48;;;;;;;2.60;1.70;;;6.10;99.90;;;;;;5115052;28;20016;-82
2023/12/20 07:03:13;;;;;;;5.43;2.30;;;6.10;99.90;;;;;;5115211;28;20023;-81
2023/12/20 07:05:40;;;;;;;3.67;1.90;;;6.00;99.90;;;;;;5114797;28;20077;-82
2023/12/20 07:08:06;;;;;;;3.67;2.10;;;6.00;99.90;;;;;;5097166;28;20045;-81
2023/12/20 07:10:32;;;;;;;5.20;2.67;;;6.00;99.90;;;;;;5115520;28;20027;-81
2023/12/20 07:12:57;;;;;;;5.10;2.10;;;6.00;99.90;;;;;;5096640;28;20028;-82
2023/12/20 07:15:23;;;;;;;2.80;2.03;;;6.00;99.90;;;;;;5104224;28;20047;-82
2023/12/20 07:17:49;;;;;;;3.67;1.90;;;6.00;99.90;;;;;;5092891;28;20027;-80
2023/12/20 07:20:15;;;;;;;2.27;1.70;;;6.00;99.90;;;;;;5095160;28;20115;-80
2023/12/20 07:22:40;;;;;;;1.80;1.53;;;6.00;99.90;;;;;;5092839;28;20020;-81
2023/12/20 07:25:07;;;;;;;2.07;1.60;;;6.00;99.90;;;;;;5095499;28;20026;-81
2023/12/20 07:27:32;;;;;;;3.43;1.77;;;6.00;99.90;;;;;;5114589;28;20023;-81
2023/12/20 07:29:58;;;;;;;2.63;1.70;;;6.00;99.90;;;;;;5114387;28;20376;-81
2023/12/20 07:32:24;;;;;;;2.60;1.67;;;6.00;99.90;;;;;;5096662;28;20016;-81
2023/12/20 07:34:49;;;;;;;3.37;2.10;;;6.00;99.90;;;;;;5096160;28;20019;-81
2023/12/20 07:37:15;;;;;;;2.57;1.80;;;6.00;99.90;;;;;;5096767;28;20023;-81
2023/12/20 07:39:41;;;;;;;2.57;1.70;;;5.90;99.90;;;;;;5096169;28;20114;-83
2023/12/20 07:42:10;;;;;;;4.10;1.80;;;5.90;99.90;;;;;;5096011;28;20047;-81
2023/12/20 07:44:35;;;;;;;3.37;1.70;;;5.90;99.90;;;;;;5096343;28;20020;-81
2023/12/20 07:47:01;;;;;;;3.43;2.00;;;5.90;99.90;;;;;;5095823;28;20034;-82
2023/12/20 07:49:27;;;;;;;3.07;1.80;;;5.80;99.90;;;;;;5096424;28;20023;-82
2023/12/20 07:51:53;;;;;;;2.27;1.70;;;5.80;99.90;;;;;;5095563;28;20030;-81
2023/12/20 07:54:18;;;;;;;4.03;1.90;;;5.80;99.90;;;;;;5096249;28;20064;-81
2023/12/20 07:56:46;;;;;;;3.33;2.30;;;5.80;99.90;;;;;;5096198;28;20106;-82
2023/12/20 07:59:12;;;;;;;2.33;1.77;;;5.90;99.90;;;;;;5114250;28;20115;-81
2023/12/20 08:01:37;;;;;;;3.70;2.03;;;5.90;99.90;;;;;;5096296;28;20047;-81
2023/12/20 08:04:03;;;;;;;5.00;2.50;;;5.90;99.90;;;;;;5095991;28;20060;-81
2023/12/20 08:06:29;;;;;;;4.07;2.67;;;5.80;99.90;;;;;;5095915;28;20114;-81
2023/12/20 08:08:54;;;;;;;4.13;2.30;;;5.80;99.90;;;;;;5113747;28;20020;-83
2023/12/20 08:11:20;;;;;;;4.13;2.17;;;5.80;99.90;;;;;;5096269;28;20422;-82
2023/12/20 08:13:46;;;;;;;7.50;3.60;;;5.80;99.90;;;;;;5095956;28;20032;-83
2023/12/20 08:16:13;;;;;;;3.60;2.33;;;5.80;99.90;;;;;;5096544;28;20106;-82
2023/12/20 08:18:39;;;;;;;6.73;2.20;;;5.80;99.90;;;;;;5096272;28;20027;-82
2023/12/20 08:21:07;;;;;;;4.47;1.90;;;5.70;99.90;;;;;;5095989;28;20019;-82
2023/12/20 08:23:33;;;;;;;3.70;2.20;;;5.80;99.90;;;;;;5096282;28;20073;-83
2023/12/20 08:25:58;;;;;;;2.70;1.73;;;5.80;99.90;;;;;;5095435;28;20023;-82
2023/12/20 08:28:24;;;;;;;3.27;2.20;;;5.80;99.90;;;;;;5096098;28;20118;-82
2023/12/20 08:30:53;;;;;;;5.13;2.30;;;5.80;99.90;;;;;;5095678;28;20140;-82
2023/12/20 08:33:19;;;;;;;4.00;1.93;;;5.80;99.90;;;;;;5096088;28;20020;-81
2023/12/20 08:35:44;;;;;;;7.50;2.37;;;5.80;99.90;;;;;;5113554;28;20023;-82
2023/12/20 08:38:10;;;;;;;4.53;2.13;;;5.80;99.90;;;;;;5095376;28;20495;-81
2023/12/20 08:40:35;;;;;;;3.73;1.80;;;5.90;99.90;;;;;;5095409;28;20076;-80
2023/12/20 08:43:01;;;;;;;5.30;2.07;;;5.80;99.90;;;;;;5095712;28;20028;-81
2023/12/20 08:45:27;;;;;;;4.00;2.10;;;5.90;99.90;;;;;;5096457;28;20031;-81
2023/12/20 08:47:52;;;;;;;2.90;1.73;;;5.90;99.90;;;;;;5113513;28;20112;-81
2023/12/20 08:50:18;;;;;;;4.00;2.10;;;5.90;99.90;;;;;;5096068;28;20034;-80
2023/12/20 08:52:43;;;;;;;2.90;1.73;;;5.90;99.90;;;;;;5095980;28;20033;-81
2023/12/20 08:55:12;;;;;;;2.83;1.60;;;5.90;99.90;;;;;;5095398;28;20026;-81
2023/12/20 08:57:38;;;;;;;2.63;1.90;;;5.90;99.90;;;;;;5113734;28;20046;-81
2023/12/20 09:00:04;;;;;;;4.70;1.83;;;5.90;99.90;;;;;;5095364;28;20020;-81
2023/12/20 09:02:30;;;;;;;4.00;1.60;;;5.90;99.90;;;;;;5095799;28;20054;-80
2023/12/20 09:04:55;;;;;;;4.87;1.70;;;5.90;99.90;;;;;;5097963;28;20027;-81
2023/12/20 09:07:25;;;;;;;2.80;1.40;;;6.00;99.90;;;;;;5099641;28;20020;-80
2023/12/20 09:09:51;;;;;;;5.20;1.20;;;6.00;99.90;;;;;;5099180;28;20034;-81
2023/12/20 09:12:19;;;;;;;3.50;1.70;;;6.00;99.90;;;;;;5099671;28;20031;-80
2023/12/20 09:14:45;;;;;;;5.10;1.37;;;6.00;99.90;;;;;;5099253;28;20080;-80
2023/12/20 09:17:11;;;;;;;3.63;1.50;;;6.10;99.90;;;;;;5098906;28;20030;-80
2023/12/20 09:19:38;;;;;;;2.03;1.27;;;6.10;99.90;;;;;;5099584;28;20131;-80
2023/12/20 09:22:04;;;;;;;3.03;1.50;;;6.20;99.90;;;;;;5098729;28;20415;-80
2023/12/20 09:24:30;;;;;;;5.23;1.70;;;6.30;99.90;;;;;;5099268;28;20028;-80
2023/12/20 09:26:56;;;;;;;4.73;1.60;;;6.30;99.90;;;;;;5098626;28;20023;-80
2023/12/20 09:29:22;;;;;;;5.10;1.67;;;6.40;99.90;;;;;;5099365;28;20027;-81
2023/12/20 09:31:47;;;;;;;5.97;1.60;;;6.40;99.90;;;;;;5097892;28;20019;-81
2023/12/20 09:34:15;;;;;;;8.03;1.60;;;6.40;99.90;;;;;;5117134;28;20027;-80
2023/12/20 09:36:46;;;;;;;4.73;1.73;;;6.40;99.90;;;;;;5098844;28;20016;-80
2023/12/20 09:39:20;;;;;;;4.77;1.37;;;6.40;99.90;;;;;;5098682;28;20027;-80
2023/12/20 09:41:51;;;;;;;4.67;1.70;;;6.50;99.90;;;;;;5098712;28;20047;-80
2023/12/20 09:44:18;;;;;;;3.42;1.00;;;6.60;99.90;;;;;;5116900;28;20026;-80
2023/12/20 09:46:45;;;;;;;2.23;1.30;;;6.70;99.90;;;;;;5116885;28;20024;-80
2023/12/20 09:49:12;;;;;;;7.20;1.40;;;6.80;99.90;;;;;;5097954;28;20544;-80
2023/12/20 09:51:37;;;;;;;4.05;1.42;;;6.80;99.90;;;;;;5098651;28;20031;-80
2023/12/20 09:54:03;;;;;;;6.47;1.55;;;6.80;99.90;;;;;;5116087;28;20028;-80
2023/12/20 09:56:30;;;;;;;3.35;1.27;;;6.90;99.90;;;;;;5098155;28;20091;-80
2023/12/20 09:58:56;;;;;;;7.78;1.85;;;6.90;99.90;;;;;;5098057;28;20115;-80
2023/12/20 10:01:22;;;;;;;6.18;2.30;;;6.80;99.90;;;;;;5116403;28;20019;-80
2023/12/20 10:03:50;;;;;;;5.30;1.90;;;6.90;99.90;;;;;;5116457;28;20076;-80
2023/12/20 10:06:16;;;;;;;9.90;1.98;;;6.80;99.90;;;;;;5098353;28;20160;-80
2023/12/20 10:08:42;;;;;;;4.63;1.60;;;6.80;99.90;;;;;;5098207;28;20110;-80
2023/12/20 10:11:08;;;;;;;4.50;1.38;;;6.80;99.90;;;;;;5097707;28;20524;-80
2023/12/20 10:13:33;;;;;;;2.70;1.50;;;6.90;99.90;;;;;;5098151;28;20031;-80
2023/12/20 10:15:59;;;;;;;7.10;1.35;;;6.90;99.90;;;;;;5115204;28;20020;-80
2023/12/20 10:18:25;;;;;;;5.15;1.20;;;6.90;99.90;;;;;;5098342;28;20031;-80
2023/12/20 10:20:51;;;;;;;5.47;1.38;;;6.80;99.90;;;;;;5097892;28;20448;-81
2023/12/20 10:23:17;;;;;;;6.38;1.95;;;6.80;99.90;;;;;;5098080;28;20026;-79
2023/12/20 10:25:43;;;;;;;7.18;1.58;;;6.80;99.90;;;;;;5097610;28;20054;-80
2023/12/20 10:28:14;;;;;;;2.88;1.58;;;6.80;99.90;;;;;;5097135;28;20058;-80
2023/12/20 10:30:40;;;;;;;6.03;1.35;;;6.80;99.90;;;;;;5097863;28;20039;-80
2023/12/20 10:33:10;;;;;;;4.23;1.50;;;6.80;99.90;;;;;;5097216;28;20110;-80
2023/12/20 10:35:37;;;;;;;4.78;1.65;;;6.80;99.90;;;;;;5097595;28;20027;-80
2023/12/20 10:38:06;;;;;;;4.27;1.37;;;6.80;99.90;;;;;;5097367;28;20114;-81
2023/12/20 10:40:36;;;;;;;6.90;1.93;;;6.80;99.90;;;;;;5097546;28;20075;-80
2023/12/20 10:43:03;;;;;;;3.83;1.60;;;6.80;99.90;;;;;;5097093;28;20042;-81
2023/12/20 10:45:28;;;;;;;7.20;1.50;;;6.80;99.90;;;;;;5097746;28;20077;-81
2023/12/20 10:47:55;;;;;;;8.83;1.83;;;6.90;99.90;;;;;;5114991;28;20436;-81
2023/12/20 10:50:21;;;;;;;7.78;1.88;;;6.90;99.90;;;;;;5115681;28;20065;-81
2023/12/20 10:52:47;;;;;;;3.60;1.50;;;6.80;99.90;;;;;;5097461;28;20024;-81
2023/12/20 10:55:13;;;;;;;4.80;1.65;;;6.80;99.90;;;;;;5096883;28;20111;-80
2023/12/20 10:57:39;;;;;;;8.80;1.90;;;6.90;99.90;;;;;;5097454;28;20520;-80
2023/12/20 11:00:11;;;;;;;6.93;1.85;;;6.90;99.90;;;;;;5096778;28;20019;-81
2023/12/20 11:02:40;;;;;;;6.18;1.70;;;7.00;99.90;;;;;;5097676;28;20024;-80
2023/12/20 11:05:14;;;;;;;10.80;1.52;;;7.10;99.90;;;;;;5114787;28;20076;-81
2023/12/20 11:07:49;;;;;;;3.30;1.42;;;7.10;99.90;;;;;;5097106;28;20030;-80
2023/12/20 11:10:26;;;;;;;6.75;1.60;;;7.20;99.90;;;;;;5096893;28;20029;-81
2023/12/20 11:13:02;;;;;;;4.43;1.88;;;7.20;99.90;;;;;;5097233;28;20020;-81
2023/12/20 11:15:28;;;;;;;6.10;1.45;;;7.20;99.90;;;;;;5097305;28;20108;-81
2023/12/20 11:17:58;;;;;;;4.40;1.45;;;7.20;99.90;;;;;;5096522;28;20449;-82
2023/12/20 11:20:34;;;;;;;5.30;1.63;;;7.10;99.90;;;;;;5097198;28;20030;-80
2023/12/20 11:23:00;;;;;;;7.38;1.70;;;7.10;99.90;;;;;;5114682;28;20077;-80
2023/12/20 11:25:26;;;;;;;5.07;1.38;;;7.00;99.90;;;;;;5096930;28;20024;-80
2023/12/20 11:28:09;;;;;;;4.95;1.30;;;7.00;99.90;;;;;;5096883;28;20031;-80
2023/12/20 11:31:01;;;;;;;11.93;1.63;;;7.00;99.90;;;;;;5097052;28;20051;-80
2023/12/20 11:33:31;;;;;;;;;;;7.00;99.90;;;;;;5086643;28;20081;-80
2023/12/20 11:35:59;;;;;;;8.10;1.42;;;7.00;99.90;;;;;;5096168;28;20366;-81
2023/12/20 11:38:25;;;;;;;6.17;2.03;;;7.00;99.90;;;;;;5096605;28;20065;-81
2023/12/20 11:40:50;;;;;;;6.68;1.40;;;7.00;99.90;;;;;;5114443;28;20066;-80
2023/12/20 11:43:35;;;;;;;4.40;1.50;;;7.00;99.90;;;;;;5096214;28;20031;-80
2023/12/20 11:46:05;;;;;;;3.92;1.60;;;7.00;99.90;;;;;;5114216;28;20023;-81
2023/12/20 11:48:32;;;;;;;6.82;2.15;;;7.00;99.90;;;;;;5096568;28;20368;-80
2023/12/20 11:50:58;;;;;;;8.77;1.73;;;7.10;99.90;;;;;;5114091;28;20027;-81
2023/12/20 11:53:23;;;;;;;7.45;1.80;;;7.10;99.90;;;;;;5114491;28;20076;-81
2023/12/20 11:55:49;;;;;;;7.50;2.38;;;7.10;99.90;;;;;;5096013;28;20019;-80
2023/12/20 11:58:16;;;;;;;3.35;1.75;;;7.10;99.90;;;;;;5113823;28;20024;-80
2023/12/20 12:00:43;;;;;;;3.40;1.45;;;7.10;99.90;;;;;;5096026;28;20457;-80
2023/12/20 12:03:09;;;;;;;8.82;1.85;;;7.10;99.90;;;;;;5095585;28;20464;-80
2023/12/20 12:05:35;;;;;;;4.30;1.42;;;7.10;99.90;;;;;;5096080;28;20023;-79
2023/12/20 12:08:01;;;;;;;5.35;1.92;;;7.10;99.90;;;;;;5095628;28;20028;-80
2023/12/20 12:10:27;;;;;;;7.30;1.73;;;7.10;99.90;;;;;;5096090;28;20122;-80
2023/12/20 12:12:53;;;;;;;9.60;1.80;;;7.10;99.90;;;;;;5096009;28;20496;-80
2023/12/20 12:15:19;;;;;;;9.48;1.90;;;7.10;99.90;;;;;;5095707;28;20026;-80
2023/12/20 12:17:52;;;;;;;4.68;1.27;;;7.10;99.90;;;;;;5096053;28;20042;-80
2023/12/20 12:20:20;;;;;;;5.18;1.65;;;7.00;99.90;;;;;;5113639;28;20109;-79
2023/12/20 12:22:47;;;;;;;6.80;1.83;;;7.10;99.90;;;;;;5113850;28;20024;-80
2023/12/20 12:25:14;;;;;;;5.38;1.52;;;7.20;99.90;;;;;;5113490;28;20114;-80
2023/12/20 12:27:40;;;;;;;5.88;1.85;;;7.10;99.90;;;;;;5095615;28;20020;-79
2023/12/20 12:30:09;;;;;;;9.05;1.58;;;7.20;99.90;;;;;;5113889;28;20479;-80
2023/12/20 12:32:35;;;;;;;5.32;1.88;;;7.20;99.90;;;;;;5096020;28;20106;-80
2023/12/20 12:35:06;;;;;;;8.75;1.63;;;7.10;99.90;;;;;;5095415;28;20135;-80
2023/12/20 12:37:34;;;;;;;5.88;1.35;;;7.10;99.90;;;;;;5114005;28;20027;-80
2023/12/20 12:39:59;;;;;;;4.93;1.20;;;7.10;99.90;;;;;;5098038;28;20031;-80
2023/12/20 12:42:28;;;;;;;5.22;1.52;;;7.10;99.90;;;;;;5099487;28;20117;-80
2023/12/20 12:44:55;;;;;;;3.63;1.40;;;7.10;99.90;;;;;;5099862;28;20020;-80
2023/12/20 12:47:20;;;;;;;5.97;1.33;;;7.10;99.90;;;;;;5099367;28;20022;-80
2023/12/20 12:49:46;;;;;;;10.00;1.50;;;7.10;99.90;;;;;;5099506;28;20383;-80
2023/12/20 12:52:11;;;;;;;9.27;1.67;;;7.10;99.90;;;;;;5099475;28;20058;-80